sensor_id;sensor_type;location;lat;lon;timestamp;temperature;humidity
70676;DHT22;59069;52.242;20.900;2022-10-01T00:01:12;11.47;81.53
70676;DHT22;59069;52.242;20.900;2022-10-01T00:03:37;11.50;81.56
70676;DHT22;59069;52.242;20.900;2022-10-01T00:06:12;11.49;81.58
70676;DHT22;59069;52.242;20.900;2022-10-01T00:08:40;11.47;81.63
70676;DHT22;59069;52.242;20.900;2022-10-01T00:11:15;11.46;81.65
70676;DHT22;59069;52.242;20.900;2022-10-01T00:13:41;11.43;81.62
70676;DHT22;59069;52.242;20.900;2022-10-01T00:16:12;11.43;81.61
70676;DHT22;59069;52.242;20.900;2022-10-01T00:18:39;11.43;81.64
70676;DHT22;59069;52.242;20.900;2022-10-01T00:21:09;11.42;81.70
70676;DHT22;59069;52.242;20.900;2022-10-01T00:23:35;11.42;81.73
70676;DHT22;59069;52.242;20.900;2022-10-01T00:28:40;11.39;81.77
70676;DHT22;59069;52.242;20.900;2022-10-01T00:31:07;11.39;81.86
70676;DHT22;59069;52.242;20.900;2022-10-01T00:33:33;11.39;81.92
70676;DHT22;59069;52.242;20.900;2022-10-01T00:35:58;11.39;81.86
70676;DHT22;59069;52.242;20.900;2022-10-01T00:38:24;11.38;81.94
70676;DHT22;59069;52.242;20.900;2022-10-01T00:40:50;11.38;82.02
70676;DHT22;59069;52.242;20.900;2022-10-01T00:43:19;11.35;82.14
70676;DHT22;59069;52.242;20.900;2022-10-01T00:45:45;11.38;82.26
70676;DHT22;59069;52.242;20.900;2022-10-01T00:48:10;11.36;82.25
70676;DHT22;59069;52.242;20.900;2022-10-01T00:50:36;11.40;82.26
70676;DHT22;59069;52.242;20.900;2022-10-01T00:53:06;11.36;82.53
70676;DHT22;59069;52.242;20.900;2022-10-01T00:55:36;11.35;82.63
70676;DHT22;59069;52.242;20.900;2022-10-01T00:58:04;11.40;82.71
70676;DHT22;59069;52.242;20.900;2022-10-01T01:00:30;11.38;82.74
70676;DHT22;59069;52.242;20.900;2022-10-01T01:02:56;11.35;82.91
70676;DHT22;59069;52.242;20.900;2022-10-01T01:05:21;11.36;83.00
70676;DHT22;59069;52.242;20.900;2022-10-01T01:07:49;11.36;83.05
70676;DHT22;59069;52.242;20.900;2022-10-01T01:10:29;11.32;83.07
70676;DHT22;59069;52.242;20.900;2022-10-01T01:13:00;11.32;83.15
70676;DHT22;59069;52.242;20.900;2022-10-01T01:18:01;11.32;83.22
70676;DHT22;59069;52.242;20.900;2022-10-01T01:20:31;11.33;83.09
70676;DHT22;59069;52.242;20.900;2022-10-01T01:25:37;11.31;82.87
70676;DHT22;59069;52.242;20.900;2022-10-01T01:30:52;11.28;82.79
70676;DHT22;59069;52.242;20.900;2022-10-01T01:33:21;11.28;82.80
70676;DHT22;59069;52.242;20.900;2022-10-01T01:35:53;11.25;82.84
70676;DHT22;59069;52.242;20.900;2022-10-01T01:38:23;11.23;82.90
70676;DHT22;59069;52.242;20.900;2022-10-01T01:40:53;11.23;82.90
70676;DHT22;59069;52.242;20.900;2022-10-01T01:43:26;11.23;82.98
70676;DHT22;59069;52.242;20.900;2022-10-01T01:45:54;11.22;83.20
70676;DHT22;59069;52.242;20.900;2022-10-01T01:48:22;11.18;83.19
70676;DHT22;59069;52.242;20.900;2022-10-01T01:51:07;11.21;83.24
70676;DHT22;59069;52.242;20.900;2022-10-01T01:53:32;11.18;83.28
70676;DHT22;59069;52.242;20.900;2022-10-01T01:55:58;11.18;83.43
70676;DHT22;59069;52.242;20.900;2022-10-01T01:58:26;11.16;83.47
70676;DHT22;59069;52.242;20.900;2022-10-01T02:00:52;11.19;83.59
70676;DHT22;59069;52.242;20.900;2022-10-01T02:03:23;11.16;83.72
70676;DHT22;59069;52.242;20.900;2022-10-01T02:06:07;11.16;83.86
70676;DHT22;59069;52.242;20.900;2022-10-01T02:08:48;11.21;83.88
70676;DHT22;59069;52.242;20.900;2022-10-01T02:14:04;11.16;84.07
70676;DHT22;59069;52.242;20.900;2022-10-01T02:16:58;11.16;84.14
70676;DHT22;59069;52.242;20.900;2022-10-01T02:19:39;11.12;84.18
70676;DHT22;59069;52.242;20.900;2022-10-01T02:22:31;11.09;84.22
70676;DHT22;59069;52.242;20.900;2022-10-01T02:25:00;11.05;84.24
70676;DHT22;59069;52.242;20.900;2022-10-01T02:27:41;11.07;84.24
70676;DHT22;59069;52.242;20.900;2022-10-01T02:30:09;11.04;84.19
70676;DHT22;59069;52.242;20.900;2022-10-01T02:32:38;11.01;84.29
70676;DHT22;59069;52.242;20.900;2022-10-01T02:35:11;11.00;84.37
70676;DHT22;59069;52.242;20.900;2022-10-01T02:37:39;11.00;84.52
70676;DHT22;59069;52.242;20.900;2022-10-01T02:40:07;10.98;84.49
70676;DHT22;59069;52.242;20.900;2022-10-01T02:42:36;10.95;84.55
70676;DHT22;59069;52.242;20.900;2022-10-01T02:45:03;10.92;84.67
70676;DHT22;59069;52.242;20.900;2022-10-01T02:47:32;10.92;84.64
70676;DHT22;59069;52.242;20.900;2022-10-01T02:50:00;10.92;84.79
70676;DHT22;59069;52.242;20.900;2022-10-01T02:52:31;10.92;84.75
70676;DHT22;59069;52.242;20.900;2022-10-01T02:55:09;10.92;84.91
70676;DHT22;59069;52.242;20.900;2022-10-01T02:57:35;10.91;84.87
70676;DHT22;59069;52.242;20.900;2022-10-01T03:00:08;10.91;84.92
70676;DHT22;59069;52.242;20.900;2022-10-01T03:02:34;10.94;85.13
70676;DHT22;59069;52.242;20.900;2022-10-01T03:04:59;10.91;85.23
70676;DHT22;59069;52.242;20.900;2022-10-01T03:07:27;10.87;85.46
70676;DHT22;59069;52.242;20.900;2022-10-01T03:09:53;10.88;85.61
70676;DHT22;59069;52.242;20.900;2022-10-01T03:12:19;10.87;85.63
70676;DHT22;59069;52.242;20.900;2022-10-01T03:14:46;10.87;85.63
70676;DHT22;59069;52.242;20.900;2022-10-01T03:17:12;10.85;85.60
70676;DHT22;59069;52.242;20.900;2022-10-01T03:19:38;10.84;85.65
70676;DHT22;59069;52.242;20.900;2022-10-01T03:22:04;10.84;85.77
70676;DHT22;59069;52.242;20.900;2022-10-01T03:24:30;10.82;85.87
70676;DHT22;59069;52.242;20.900;2022-10-01T03:26:55;10.80;85.82
70676;DHT22;59069;52.242;20.900;2022-10-01T03:29:25;10.77;85.97
70676;DHT22;59069;52.242;20.900;2022-10-01T03:31:52;10.77;85.92
70676;DHT22;59069;52.242;20.900;2022-10-01T03:34:18;10.77;86.09
70676;DHT22;59069;52.242;20.900;2022-10-01T03:36:43;10.75;86.17
70676;DHT22;59069;52.242;20.900;2022-10-01T03:39:09;10.74;86.13
70676;DHT22;59069;52.242;20.900;2022-10-01T03:41:34;10.74;86.18
70676;DHT22;59069;52.242;20.900;2022-10-01T03:44:01;10.71;86.29
70676;DHT22;59069;52.242;20.900;2022-10-01T03:46:26;10.68;86.33
70676;DHT22;59069;52.242;20.900;2022-10-01T03:48:51;10.67;86.27
70676;DHT22;59069;52.242;20.900;2022-10-01T03:51:17;10.64;86.12
70676;DHT22;59069;52.242;20.900;2022-10-01T03:53:45;10.63;85.97
70676;DHT22;59069;52.242;20.900;2022-10-01T03:56:11;10.60;85.81
70676;DHT22;59069;52.242;20.900;2022-10-01T03:58:36;10.56;85.78
70676;DHT22;59069;52.242;20.900;2022-10-01T04:01:02;10.50;85.81
70676;DHT22;59069;52.242;20.900;2022-10-01T04:03:27;10.47;85.81
70676;DHT22;59069;52.242;20.900;2022-10-01T04:05:54;10.44;85.87
70676;DHT22;59069;52.242;20.900;2022-10-01T04:08:19;10.40;85.86
70676;DHT22;59069;52.242;20.900;2022-10-01T04:10:45;10.36;85.82
70676;DHT22;59069;52.242;20.900;2022-10-01T04:13:10;10.33;85.98
70676;DHT22;59069;52.242;20.900;2022-10-01T04:15:35;10.28;86.06
70676;DHT22;59069;52.242;20.900;2022-10-01T04:18:01;10.24;86.11
70676;DHT22;59069;52.242;20.900;2022-10-01T04:20:30;10.20;86.15
70676;DHT22;59069;52.242;20.900;2022-10-01T04:22:55;10.17;86.31
70676;DHT22;59069;52.242;20.900;2022-10-01T04:25:21;10.13;86.39
70676;DHT22;59069;52.242;20.900;2022-10-01T04:28:00;10.08;86.40
70676;DHT22;59069;52.242;20.900;2022-10-01T04:30:29;10.02;86.48
70676;DHT22;59069;52.242;20.900;2022-10-01T04:32:54;9.98;86.54
70676;DHT22;59069;52.242;20.900;2022-10-01T04:35:20;9.95;86.52
70676;DHT22;59069;52.242;20.900;2022-10-01T04:37:46;9.90;86.73
70676;DHT22;59069;52.242;20.900;2022-10-01T04:40:12;9.88;86.76
70676;DHT22;59069;52.242;20.900;2022-10-01T04:42:41;9.86;86.79
70676;DHT22;59069;52.242;20.900;2022-10-01T04:45:08;9.83;86.70
70676;DHT22;59069;52.242;20.900;2022-10-01T04:47:34;9.78;86.72
70676;DHT22;59069;52.242;20.900;2022-10-01T04:50:00;9.74;86.73
70676;DHT22;59069;52.242;20.900;2022-10-01T04:52:25;9.68;86.79
70676;DHT22;59069;52.242;20.900;2022-10-01T04:54:50;9.65;86.84
70676;DHT22;59069;52.242;20.900;2022-10-01T04:57:17;9.62;87.03
70676;DHT22;59069;52.242;20.900;2022-10-01T04:59:46;9.62;87.06
70676;DHT22;59069;52.242;20.900;2022-10-01T05:02:11;9.62;87.09
70676;DHT22;59069;52.242;20.900;2022-10-01T05:04:37;9.62;87.19
70676;DHT22;59069;52.242;20.900;2022-10-01T05:07:03;9.58;87.24
70676;DHT22;59069;52.242;20.900;2022-10-01T05:09:28;9.59;87.33
70676;DHT22;59069;52.242;20.900;2022-10-01T05:11:53;9.55;87.43
70676;DHT22;59069;52.242;20.900;2022-10-01T05:14:19;9.59;87.50
70676;DHT22;59069;52.242;20.900;2022-10-01T05:16:45;9.58;87.57
70676;DHT22;59069;52.242;20.900;2022-10-01T05:19:11;9.58;87.62
70676;DHT22;59069;52.242;20.900;2022-10-01T05:21:36;9.58;87.71
70676;DHT22;59069;52.242;20.900;2022-10-01T05:24:02;9.61;88.07
70676;DHT22;59069;52.242;20.900;2022-10-01T05:26:27;9.65;88.41
70676;DHT22;59069;52.242;20.900;2022-10-01T05:28:56;9.74;88.51
70676;DHT22;59069;52.242;20.900;2022-10-01T05:31:22;9.78;88.66
70676;DHT22;59069;52.242;20.900;2022-10-01T05:33:48;9.81;88.79
70676;DHT22;59069;52.242;20.900;2022-10-01T05:36:13;9.90;88.91
70676;DHT22;59069;52.242;20.900;2022-10-01T05:38:39;9.95;88.87
70676;DHT22;59069;52.242;20.900;2022-10-01T05:41:06;10.06;88.52
70676;DHT22;59069;52.242;20.900;2022-10-01T05:43:31;10.17;88.40
70676;DHT22;59069;52.242;20.900;2022-10-01T05:46:01;10.26;88.28
70676;DHT22;59069;52.242;20.900;2022-10-01T05:48:27;10.37;88.17
70676;DHT22;59069;52.242;20.900;2022-10-01T05:50:53;10.50;87.92
70676;DHT22;59069;52.242;20.900;2022-10-01T05:53:19;10.60;87.44
70676;DHT22;59069;52.242;20.900;2022-10-01T05:55:44;10.70;86.99
70676;DHT22;59069;52.242;20.900;2022-10-01T05:58:11;10.77;86.57
70676;DHT22;59069;52.242;20.900;2022-10-01T06:00:38;10.84;86.26
70676;DHT22;59069;52.242;20.900;2022-10-01T06:03:04;10.88;85.70
70676;DHT22;59069;52.242;20.900;2022-10-01T06:05:31;10.87;85.38
70676;DHT22;59069;52.242;20.900;2022-10-01T06:07:57;10.82;85.35
70676;DHT22;59069;52.242;20.900;2022-10-01T06:10:23;10.80;85.58
70676;DHT22;59069;52.242;20.900;2022-10-01T06:12:49;10.81;85.85
70676;DHT22;59069;52.242;20.900;2022-10-01T06:15:15;10.78;85.87
70676;DHT22;59069;52.242;20.900;2022-10-01T06:17:41;10.78;86.31
70676;DHT22;59069;52.242;20.900;2022-10-01T06:20:14;10.84;86.22
70676;DHT22;59069;52.242;20.900;2022-10-01T06:22:40;10.90;86.37
70676;DHT22;59069;52.242;20.900;2022-10-01T06:25:08;10.92;86.36
70676;DHT22;59069;52.242;20.900;2022-10-01T06:27:34;10.97;86.57
70676;DHT22;59069;52.242;20.900;2022-10-01T06:29:59;11.07;86.70
70676;DHT22;59069;52.242;20.900;2022-10-01T06:32:25;11.25;87.37
70676;DHT22;59069;52.242;20.900;2022-10-01T06:34:50;11.47;87.65
70676;DHT22;59069;52.242;20.900;2022-10-01T06:37:16;11.65;86.50
70676;DHT22;59069;52.242;20.900;2022-10-01T06:39:41;11.79;85.62
70676;DHT22;59069;52.242;20.900;2022-10-01T06:42:08;11.91;85.10
70676;DHT22;59069;52.242;20.900;2022-10-01T06:44:34;12.04;85.35
70676;DHT22;59069;52.242;20.900;2022-10-01T06:46:59;12.18;85.10
70676;DHT22;59069;52.242;20.900;2022-10-01T06:49:24;12.21;84.46
70676;DHT22;59069;52.242;20.900;2022-10-01T06:51:50;12.35;84.43
70676;DHT22;59069;52.242;20.900;2022-10-01T06:54:34;12.54;85.22
70676;DHT22;59069;52.242;20.900;2022-10-01T06:56:59;12.66;85.13
70676;DHT22;59069;52.242;20.900;2022-10-01T06:59:25;12.85;83.72
70676;DHT22;59069;52.242;20.900;2022-10-01T07:01:51;12.97;83.16
70676;DHT22;59069;52.242;20.900;2022-10-01T07:04:18;13.02;81.32
70676;DHT22;59069;52.242;20.900;2022-10-01T07:06:43;12.93;80.33
70676;DHT22;59069;52.242;20.900;2022-10-01T07:09:09;12.92;79.95
70676;DHT22;59069;52.242;20.900;2022-10-01T07:11:35;12.88;79.35
70676;DHT22;59069;52.242;20.900;2022-10-01T07:14:06;12.78;78.98
70676;DHT22;59069;52.242;20.900;2022-10-01T07:16:32;12.65;79.04
70676;DHT22;59069;52.242;20.900;2022-10-01T07:18:58;12.59;79.30
70676;DHT22;59069;52.242;20.900;2022-10-01T07:21:24;12.54;79.27
70676;DHT22;59069;52.242;20.900;2022-10-01T07:23:49;12.61;79.54
70676;DHT22;59069;52.242;20.900;2022-10-01T07:26:15;12.65;79.61
70676;DHT22;59069;52.242;20.900;2022-10-01T07:28:40;12.73;79.43
70676;DHT22;59069;52.242;20.900;2022-10-01T07:31:07;12.81;79.27
70676;DHT22;59069;52.242;20.900;2022-10-01T07:33:39;12.91;78.95
70676;DHT22;59069;52.242;20.900;2022-10-01T07:36:07;12.97;78.50
70676;DHT22;59069;52.242;20.900;2022-10-01T07:38:33;13.04;78.39
70676;DHT22;59069;52.242;20.900;2022-10-01T07:40:59;13.14;78.17
70676;DHT22;59069;52.242;20.900;2022-10-01T07:43:26;13.77;81.76
70676;DHT22;59069;52.242;20.900;2022-10-01T07:45:52;14.01;77.59
70676;DHT22;59069;52.242;20.900;2022-10-01T07:48:19;14.02;76.39
70676;DHT22;59069;52.242;20.900;2022-10-01T07:50:44;14.05;75.54
70676;DHT22;59069;52.242;20.900;2022-10-01T07:53:10;14.09;76.89
70676;DHT22;59069;52.242;20.900;2022-10-01T07:55:36;14.25;80.63
70676;DHT22;59069;52.242;20.900;2022-10-01T07:58:03;14.70;86.10
70676;DHT22;59069;52.242;20.900;2022-10-01T08:00:30;15.45;86.11
70676;DHT22;59069;52.242;20.900;2022-10-01T08:02:57;16.07;78.68
70676;DHT22;59069;52.242;20.900;2022-10-01T08:05:25;16.54;73.02
70676;DHT22;59069;52.242;20.900;2022-10-01T08:07:51;16.96;70.68
70676;DHT22;59069;52.242;20.900;2022-10-01T08:10:19;17.30;65.20
70676;DHT22;59069;52.242;20.900;2022-10-01T08:12:45;17.15;59.28
70676;DHT22;59069;52.242;20.900;2022-10-01T08:15:12;17.02;58.38
70676;DHT22;59069;52.242;20.900;2022-10-01T08:17:38;16.82;58.09
70676;DHT22;59069;52.242;20.900;2022-10-01T08:20:05;16.70;59.87
70676;DHT22;59069;52.242;20.900;2022-10-01T08:22:31;16.50;60.78
70676;DHT22;59069;52.242;20.900;2022-10-01T08:24:56;16.30;61.43
70676;DHT22;59069;52.242;20.900;2022-10-01T08:27:25;16.16;62.37
70676;DHT22;59069;52.242;20.900;2022-10-01T08:29:51;16.06;62.67
70676;DHT22;59069;52.242;20.900;2022-10-01T08:32:16;16.07;63.41
70676;DHT22;59069;52.242;20.900;2022-10-01T08:34:42;16.03;64.51
70676;DHT22;59069;52.242;20.900;2022-10-01T08:37:07;16.31;71.42
70676;DHT22;59069;52.242;20.900;2022-10-01T08:39:32;16.23;61.05
70676;DHT22;59069;52.242;20.900;2022-10-01T08:42:13;15.97;61.83
70676;DHT22;59069;52.242;20.900;2022-10-01T08:44:47;15.70;62.66
70676;DHT22;59069;52.242;20.900;2022-10-01T08:47:34;15.44;63.73
70676;DHT22;59069;52.242;20.900;2022-10-01T08:50:07;15.25;64.27
70676;DHT22;59069;52.242;20.900;2022-10-01T08:52:41;15.08;65.05
70676;DHT22;59069;52.242;20.900;2022-10-01T08:55:21;14.98;65.45
70676;DHT22;59069;52.242;20.900;2022-10-01T08:57:52;14.86;66.14
70676;DHT22;59069;52.242;20.900;2022-10-01T09:00:18;14.70;66.87
70676;DHT22;59069;52.242;20.900;2022-10-01T09:02:45;14.55;67.30
70676;DHT22;59069;52.242;20.900;2022-10-01T09:10:45;14.46;68.59
70676;DHT22;59069;52.242;20.900;2022-10-01T09:16:36;14.39;68.76
70676;DHT22;59069;52.242;20.900;2022-10-01T09:27:12;14.04;69.18
70676;DHT22;59069;52.242;20.900;2022-10-01T09:29:58;13.89;69.45
70676;DHT22;59069;52.242;20.900;2022-10-01T09:32:30;13.78;69.99
70676;DHT22;59069;52.242;20.900;2022-10-01T09:34:56;13.70;70.68
70676;DHT22;59069;52.242;20.900;2022-10-01T09:40:22;13.63;71.23
70676;DHT22;59069;52.242;20.900;2022-10-01T09:42:49;13.63;71.44
70676;DHT22;59069;52.242;20.900;2022-10-01T09:45:16;13.63;71.74
70676;DHT22;59069;52.242;20.900;2022-10-01T09:47:50;13.64;71.94
70676;DHT22;59069;52.242;20.900;2022-10-01T09:50:21;13.63;71.95
70676;DHT22;59069;52.242;20.900;2022-10-01T09:52:50;13.60;72.08
70676;DHT22;59069;52.242;20.900;2022-10-01T09:55:35;13.61;72.37
70676;DHT22;59069;52.242;20.900;2022-10-01T09:58:08;13.68;72.55
70676;DHT22;59069;52.242;20.900;2022-10-01T10:00:37;13.70;72.68
70676;DHT22;59069;52.242;20.900;2022-10-01T10:03:03;13.79;73.59
70676;DHT22;59069;52.242;20.900;2022-10-01T10:05:39;14.01;73.82
70676;DHT22;59069;52.242;20.900;2022-10-01T10:08:32;14.21;73.79
70676;DHT22;59069;52.242;20.900;2022-10-01T10:11:01;14.32;72.93
70676;DHT22;59069;52.242;20.900;2022-10-01T10:13:38;14.46;72.23
70676;DHT22;59069;52.242;20.900;2022-10-01T10:16:08;14.53;71.71
70676;DHT22;59069;52.242;20.900;2022-10-01T10:18:36;14.55;70.82
70676;DHT22;59069;52.242;20.900;2022-10-01T10:21:05;14.55;70.65
70676;DHT22;59069;52.242;20.900;2022-10-01T10:23:46;14.49;70.59
70676;DHT22;59069;52.242;20.900;2022-10-01T10:26:29;14.47;70.57
70676;DHT22;59069;52.242;20.900;2022-10-01T10:28:57;14.37;70.33
70676;DHT22;59069;52.242;20.900;2022-10-01T10:31:25;14.29;70.42
70676;DHT22;59069;52.242;20.900;2022-10-01T10:34:10;14.16;70.58
70676;DHT22;59069;52.242;20.900;2022-10-01T10:36:38;14.06;70.74
70676;DHT22;59069;52.242;20.900;2022-10-01T10:39:09;14.00;71.02
70676;DHT22;59069;52.242;20.900;2022-10-01T10:41:42;13.95;71.47
70676;DHT22;59069;52.242;20.900;2022-10-01T10:44:13;13.85;71.44
70676;DHT22;59069;52.242;20.900;2022-10-01T10:46:41;13.79;71.78
70676;DHT22;59069;52.242;20.900;2022-10-01T10:49:18;13.75;72.03
70676;DHT22;59069;52.242;20.900;2022-10-01T10:51:49;13.70;72.43
70676;DHT22;59069;52.242;20.900;2022-10-01T10:54:31;13.65;72.52
70676;DHT22;59069;52.242;20.900;2022-10-01T10:57:01;13.64;72.55
70676;DHT22;59069;52.242;20.900;2022-10-01T10:59:32;13.63;72.82
70676;DHT22;59069;52.242;20.900;2022-10-01T11:02:03;13.65;73.03
70676;DHT22;59069;52.242;20.900;2022-10-01T11:04:37;13.57;72.94
70676;DHT22;59069;52.242;20.900;2022-10-01T11:07:04;13.57;72.92
70676;DHT22;59069;52.242;20.900;2022-10-01T11:10:02;13.58;73.07
70676;DHT22;59069;52.242;20.900;2022-10-01T11:12:57;13.65;73.25
70676;DHT22;59069;52.242;20.900;2022-10-01T11:26:39;14.11;71.67
70676;DHT22;59069;52.242;20.900;2022-10-01T11:37:46;14.59;71.84
70676;DHT22;59069;52.242;20.900;2022-10-01T11:40:23;14.70;70.77
70676;DHT22;59069;52.242;20.900;2022-10-01T11:42:53;14.80;70.60
70676;DHT22;59069;52.242;20.900;2022-10-01T11:45:25;14.87;69.97
70676;DHT22;59069;52.242;20.900;2022-10-01T11:48:00;14.84;69.24
70676;DHT22;59069;52.242;20.900;2022-10-01T11:50:33;14.80;68.92
70676;DHT22;59069;52.242;20.900;2022-10-01T11:53:04;14.87;68.97
70676;DHT22;59069;52.242;20.900;2022-10-01T11:55:42;14.88;69.11
70676;DHT22;59069;52.242;20.900;2022-10-01T11:58:47;15.01;68.86
70676;DHT22;59069;52.242;20.900;2022-10-01T12:04:17;15.17;67.62
70676;DHT22;59069;52.242;20.900;2022-10-01T12:10:24;15.38;67.05
70676;DHT22;59069;52.242;20.900;2022-10-01T12:15:48;15.39;65.65
70676;DHT22;59069;52.242;20.900;2022-10-01T12:21:24;15.39;65.15
70676;DHT22;59069;52.242;20.900;2022-10-01T12:23:59;15.42;65.32
70676;DHT22;59069;52.242;20.900;2022-10-01T12:40:45;15.62;64.92
70676;DHT22;59069;52.242;20.900;2022-10-01T12:43:22;15.51;64.98
70676;DHT22;59069;52.242;20.900;2022-10-01T12:46:02;15.49;65.74
70676;DHT22;59069;52.242;20.900;2022-10-01T12:48:39;15.51;65.70
70676;DHT22;59069;52.242;20.900;2022-10-01T13:02:24;15.73;64.20
70676;DHT22;59069;52.242;20.900;2022-10-01T13:05:03;15.63;64.00
70676;DHT22;59069;52.242;20.900;2022-10-01T13:07:36;15.52;64.27
70676;DHT22;59069;52.242;20.900;2022-10-01T13:15:26;15.11;64.79
70676;DHT22;59069;52.242;20.900;2022-10-01T13:18:14;15.04;65.10
70676;DHT22;59069;52.242;20.900;2022-10-01T13:26:17;14.93;65.61
70676;DHT22;59069;52.242;20.900;2022-10-01T13:29:02;14.87;65.90
70676;DHT22;59069;52.242;20.900;2022-10-01T13:34:42;14.84;66.16
70676;DHT22;59069;52.242;20.900;2022-10-01T13:37:18;14.84;66.22
70676;DHT22;59069;52.242;20.900;2022-10-01T13:39:44;14.84;66.22
70676;DHT22;59069;52.242;20.900;2022-10-01T13:42:29;14.81;66.26
70676;DHT22;59069;52.242;20.900;2022-10-01T13:44:58;14.81;66.22
70676;DHT22;59069;52.242;20.900;2022-10-01T13:47:25;14.81;66.53
70676;DHT22;59069;52.242;20.900;2022-10-01T13:49:58;14.81;66.70
70676;DHT22;59069;52.242;20.900;2022-10-01T13:52:24;14.79;66.88
70676;DHT22;59069;52.242;20.900;2022-10-01T13:54:54;14.77;67.16
70676;DHT22;59069;52.242;20.900;2022-10-01T13:57:38;14.73;67.30
70676;DHT22;59069;52.242;20.900;2022-10-01T14:02:42;14.69;67.64
70676;DHT22;59069;52.242;20.900;2022-10-01T14:07:54;14.62;67.95
70676;DHT22;59069;52.242;20.900;2022-10-01T14:10:23;14.60;68.05
70676;DHT22;59069;52.242;20.900;2022-10-01T14:12:54;14.56;68.11
70676;DHT22;59069;52.242;20.900;2022-10-01T14:15:43;14.50;68.12
70676;DHT22;59069;52.242;20.900;2022-10-01T14:18:38;14.46;68.22
70676;DHT22;59069;52.242;20.900;2022-10-01T14:26:53;14.40;68.66
70676;DHT22;59069;52.242;20.900;2022-10-01T14:29:38;14.35;68.98
70676;DHT22;59069;52.242;20.900;2022-10-01T14:35:20;14.39;69.19
70676;DHT22;59069;52.242;20.900;2022-10-01T14:37:48;14.33;69.15
70676;DHT22;59069;52.242;20.900;2022-10-01T14:40:20;14.30;69.28
70676;DHT22;59069;52.242;20.900;2022-10-01T14:42:57;14.28;69.47
70676;DHT22;59069;52.242;20.900;2022-10-01T14:45:23;14.29;69.54
70676;DHT22;59069;52.242;20.900;2022-10-01T14:47:59;14.25;69.65
70676;DHT22;59069;52.242;20.900;2022-10-01T14:50:26;14.28;69.77
70676;DHT22;59069;52.242;20.900;2022-10-01T14:52:52;14.24;69.71
70676;DHT22;59069;52.242;20.900;2022-10-01T14:55:21;14.24;69.81
70676;DHT22;59069;52.242;20.900;2022-10-01T14:57:49;14.19;70.01
70676;DHT22;59069;52.242;20.900;2022-10-01T15:00:20;14.19;70.25
70676;DHT22;59069;52.242;20.900;2022-10-01T15:02:52;14.18;70.40
70676;DHT22;59069;52.242;20.900;2022-10-01T15:07:46;14.12;70.82
70676;DHT22;59069;52.242;20.900;2022-10-01T15:10:16;14.08;71.12
70676;DHT22;59069;52.242;20.900;2022-10-01T15:12:49;14.05;71.28
70676;DHT22;59069;52.242;20.900;2022-10-01T15:15:23;14.02;71.44
70676;DHT22;59069;52.242;20.900;2022-10-01T15:17:50;13.94;71.69
70676;DHT22;59069;52.242;20.900;2022-10-01T15:20:16;13.92;71.78
70676;DHT22;59069;52.242;20.900;2022-10-01T15:22:43;13.85;72.04
70676;DHT22;59069;52.242;20.900;2022-10-01T15:25:18;13.84;72.35
70676;DHT22;59069;52.242;20.900;2022-10-01T15:27:44;13.82;72.47
70676;DHT22;59069;52.242;20.900;2022-10-01T15:30:13;13.78;72.69
70676;DHT22;59069;52.242;20.900;2022-10-01T15:32:40;13.77;72.97
70676;DHT22;59069;52.242;20.900;2022-10-01T15:35:10;13.73;73.05
70676;DHT22;59069;52.242;20.900;2022-10-01T15:37:36;13.67;73.27
70676;DHT22;59069;52.242;20.900;2022-10-01T15:40:05;13.64;73.32
70676;DHT22;59069;52.242;20.900;2022-10-01T15:42:33;13.60;73.41
70676;DHT22;59069;52.242;20.900;2022-10-01T15:47:33;13.54;73.74
70676;DHT22;59069;52.242;20.900;2022-10-01T16:03:31;13.37;74.75
70676;DHT22;59069;52.242;20.900;2022-10-01T16:05:58;13.34;75.02
70676;DHT22;59069;52.242;20.900;2022-10-01T16:08:30;13.33;75.09
70676;DHT22;59069;52.242;20.900;2022-10-01T16:13:41;13.24;75.26
70676;DHT22;59069;52.242;20.900;2022-10-01T16:18:38;13.20;75.50
70676;DHT22;59069;52.242;20.900;2022-10-01T16:21:05;13.17;75.57
70676;DHT22;59069;52.242;20.900;2022-10-01T16:23:40;13.17;75.81
70676;DHT22;59069;52.242;20.900;2022-10-01T16:26:29;13.14;75.87
70676;DHT22;59069;52.242;20.900;2022-10-01T16:29:03;13.10;76.01
70676;DHT22;59069;52.242;20.900;2022-10-01T16:31:30;13.12;76.13
70676;DHT22;59069;52.242;20.900;2022-10-01T16:33:56;13.12;76.21
70676;DHT22;59069;52.242;20.900;2022-10-01T16:36:21;13.10;76.31
70676;DHT22;59069;52.242;20.900;2022-10-01T16:38:50;13.09;76.46
70676;DHT22;59069;52.242;20.900;2022-10-01T16:41:20;13.10;76.70
70676;DHT22;59069;52.242;20.900;2022-10-01T16:43:50;13.07;76.70
70676;DHT22;59069;52.242;20.900;2022-10-01T16:46:16;13.04;76.69
70676;DHT22;59069;52.242;20.900;2022-10-01T16:48:42;13.00;76.79
70676;DHT22;59069;52.242;20.900;2022-10-01T16:51:07;12.97;76.96
70676;DHT22;59069;52.242;20.900;2022-10-01T16:53:33;12.95;76.98
70676;DHT22;59069;52.242;20.900;2022-10-01T16:55:59;12.95;77.13
70676;DHT22;59069;52.242;20.900;2022-10-01T16:58:24;12.91;77.28
70676;DHT22;59069;52.242;20.900;2022-10-01T17:00:50;12.89;77.32
70676;DHT22;59069;52.242;20.900;2022-10-01T17:03:18;12.86;77.36
70676;DHT22;59069;52.242;20.900;2022-10-01T17:05:44;12.86;77.47
70676;DHT22;59069;52.242;20.900;2022-10-01T17:08:10;12.83;77.47
70676;DHT22;59069;52.242;20.900;2022-10-01T17:10:44;12.83;77.49
70676;DHT22;59069;52.242;20.900;2022-10-01T17:13:12;12.83;77.54
70676;DHT22;59069;52.242;20.900;2022-10-01T17:15:38;12.82;77.63
70676;DHT22;59069;52.242;20.900;2022-10-01T17:18:03;12.79;77.66
70676;DHT22;59069;52.242;20.900;2022-10-01T17:20:29;12.79;77.68
70676;DHT22;59069;52.242;20.900;2022-10-01T17:22:56;12.81;77.57
70676;DHT22;59069;52.242;20.900;2022-10-01T17:25:29;12.79;77.63
70676;DHT22;59069;52.242;20.900;2022-10-01T17:28:00;12.75;77.57
70676;DHT22;59069;52.242;20.900;2022-10-01T17:30:26;12.75;77.61
70676;DHT22;59069;52.242;20.900;2022-10-01T17:32:54;12.76;77.54
70676;DHT22;59069;52.242;20.900;2022-10-01T17:35:20;12.75;77.70
70676;DHT22;59069;52.242;20.900;2022-10-01T17:37:45;12.72;77.75
70676;DHT22;59069;52.242;20.900;2022-10-01T17:40:11;12.73;77.71
70676;DHT22;59069;52.242;20.900;2022-10-01T17:42:36;12.73;77.74
70676;DHT22;59069;52.242;20.900;2022-10-01T17:45:04;12.72;77.83
70676;DHT22;59069;52.242;20.900;2022-10-01T17:47:30;12.72;77.95
70676;DHT22;59069;52.242;20.900;2022-10-01T17:49:56;12.72;77.96
70676;DHT22;59069;52.242;20.900;2022-10-01T17:52:21;12.69;78.03
70676;DHT22;59069;52.242;20.900;2022-10-01T17:54:46;12.71;78.19